Mountain Home, ID

17:16:MST den 12. februar 2016 (GMT -0700)
NonFedAWOS | | Change Station
CLOSE
Current Station
Personlig værstasjon
Location: Mountain Home, ID
Høyde over havet: 3160 ft
Nearby Weather Stations

H.o.h 3160 ft 43.13 °N, 115.73 °W | Updated 41 minutes ago

Delvis skyet
Delvis skyet
50 °F
Feels Like 47 °F
N
7
Vind Variabel Vind from ØSØ
Gusts 0.0 mph

I dag
High -- | Low -- °F
--% Chance of Precip.
I går
High -- | Low -- °F
Precip. -- tommer
Lufttrykk 30.27 tommer
Sikt 10.0 eng. mil
Skyet Few 17000 ft
Nedkjølingseffekt 47 °F
Duggpunkt 34 °F
Fuktighet 54%
Regn tommer
Snødybde Not available.
7:45 AM 6:09 PM
Økende sigd, 25% visible
METAR KMUO 122358Z AUTO 28004KT 10SM FEW170 09/02 A3023 RMK AO2 SLP251 T00860021 10114 20039 55008 $
Lufttrykk 30.27 tommer
Sikt 10.0 eng. mil
Skyet Few 17000 ft
Nedkjølingseffekt 47 °F
Duggpunkt 34 °F
Fuktighet 54%
Regn tommer
Snødybde Not available.
7:45 AM 6:09 PM
Økende sigd, 25% visible
METAR KMUO 122358Z AUTO 28004KT 10SM FEW170 09/02 A3023 RMK AO2 SLP251 T00860021 10114 20039 55008 $

10-Day Weather Forecast

Almanac

Astronomi

Feb. 12, 2016 Oppgang Nedgang
Virkelig tid
Tussmørke
Nautisk skumring
Astronomisk skumring
Månen
Lengde av synlig lys
Dagens lengde
Tomorrow will be .
, % of the Moon is Illuminated

Dagens maks og min

State Highs State Lows

Community

WunderPhotos

Upload Photos

1,892,437 photos uploaded!

WunderBlog® & News

Nearby

Luftkvalitet

  Luftkvalitet AQ Indeks Forurensing
Not available.

Snødybde

Stasjon Depth Høyde over havet

Earthquake Activity

By Distance Mag. Time & Date
Minimum magnitude displayed is 2.5.

Coastal Water Temperatures

Sted Temperatur

Stations

Nearby Weather Stations

Stasjonens lokasjon Temp. Nedkjølingseffekt Duggpunkt Fuktighet Vind Precip. H.o.h Oppdatert Type
                   

Watches & Warnings

There are currently no watches in effect.